Time;durP1;ratioP1;P1;durP2;ratioP2;P2;SDS_P1;SDS_P2;PMS_P1;PMS_P2;Temp;Humidity;BMP_temperature;BMP_pressure;BME280_temperature;BME280_humidity;BME280_pressure;Samples;Min_cycle;Max_cycle;Signal;HPM_P1;HPM_P2
2024/03/24 00:02:04;;;;;;;1.97;1.00;;;7.60;99.90;;;;;;5041339;28;20229;-60
2024/03/24 00:04:30;;;;;;;2.13;0.97;;;7.60;99.90;;;;;;5043546;28;20268;-60
2024/03/24 00:06:58;;;;;;;1.13;0.70;;;7.60;99.90;;;;;;5045058;28;20198;-61
2024/03/24 00:09:24;;;;;;;0.90;0.70;;;7.60;99.90;;;;;;5043979;28;20201;-59
2024/03/24 00:11:52;;;;;;;1.20;0.70;;;7.60;99.90;;;;;;5041475;28;20277;-62
2024/03/24 00:14:18;;;;;;;1.60;1.20;;;7.70;99.90;;;;;;5041772;28;20605;-61
2024/03/24 00:16:45;;;;;;;2.97;0.60;;;7.70;99.90;;;;;;5044622;28;20224;-61
2024/03/24 00:19:10;;;;;;;0.77;0.60;;;7.70;99.90;;;;;;5044723;28;20681;-62
2024/03/24 00:21:37;;;;;;;3.83;0.83;;;7.70;99.90;;;;;;5041810;28;22507;-62
2024/03/24 00:24:03;;;;;;;2.43;0.83;;;7.80;99.90;;;;;;5041324;28;20219;-60
2024/03/24 00:26:30;;;;;;;1.17;0.60;;;7.90;99.90;;;;;;5042570;28;20285;-61
2024/03/24 00:28:57;;;;;;;2.47;0.80;;;8.00;99.90;;;;;;5044517;28;20206;-60
2024/03/24 00:31:24;;;;;;;2.40;0.80;;;8.00;99.90;;;;;;5043312;28;20205;-61
2024/03/24 00:33:50;;;;;;;1.30;0.97;;;7.90;99.90;;;;;;5041237;28;20226;-62
2024/03/24 00:36:16;;;;;;;1.57;0.93;;;7.80;99.90;;;;;;5040898;28;20205;-61
2024/03/24 00:38:42;;;;;;;2.47;0.73;;;7.90;99.90;;;;;;5032915;28;20210;-60
2024/03/24 00:41:09;;;;;;;1.80;0.43;;;8.00;99.90;;;;;;5041157;28;20194;-61
2024/03/24 00:43:35;;;;;;;1.43;0.60;;;8.00;99.90;;;;;;5043172;28;20222;-61
2024/03/24 00:46:03;;;;;;;2.17;1.10;;;8.10;99.90;;;;;;5044174;28;20193;-60
2024/03/24 00:48:29;;;;;;;1.13;1.00;;;8.00;99.90;;;;;;5042964;28;20233;-61
2024/03/24 00:50:56;;;;;;;0.70;0.50;;;8.00;99.90;;;;;;5041145;28;20229;-62
2024/03/24 00:53:22;;;;;;;3.47;0.87;;;8.00;99.90;;;;;;5041155;28;20707;-61
2024/03/24 00:55:49;;;;;;;1.90;0.80;;;8.00;99.90;;;;;;5044060;28;20202;-62
2024/03/24 00:58:14;;;;;;;2.10;0.60;;;8.00;99.90;;;;;;5043945;28;20202;-61
2024/03/24 01:00:41;;;;;;;1.53;0.77;;;8.00;99.90;;;;;;5040800;28;20209;-61
2024/03/24 01:03:08;;;;;;;3.03;1.00;;;8.00;99.90;;;;;;5040692;28;20229;-62
2024/03/24 01:05:35;;;;;;;1.40;0.73;;;7.90;99.90;;;;;;5042665;28;20213;-61
2024/03/24 01:08:00;;;;;;;1.27;0.70;;;8.00;99.90;;;;;;5044267;28;20206;-62
2024/03/24 01:10:27;;;;;;;1.20;0.70;;;8.10;99.90;;;;;;5042804;28;20256;-62
2024/03/24 01:12:53;;;;;;;1.93;0.70;;;8.10;99.90;;;;;;5040665;28;20648;-61
2024/03/24 01:15:19;;;;;;;0.90;0.63;;;8.10;99.90;;;;;;5040519;28;20210;-60
2024/03/24 01:17:46;;;;;;;1.40;0.77;;;8.00;99.90;;;;;;5043716;28;20205;-61
2024/03/24 01:20:15;;;;;;;8.47;4.73;;;8.00;99.90;;;;;;5043819;28;20198;-62
2024/03/24 01:22:41;;;;;;;3.23;1.30;;;7.90;99.90;;;;;;5040350;28;20280;-61
2024/03/24 01:25:08;;;;;;;1.70;0.80;;;7.80;99.90;;;;;;5039845;28;20602;-61
2024/03/24 01:27:34;;;;;;;1.47;0.60;;;7.80;99.90;;;;;;5041849;28;20233;-62
2024/03/24 01:30:01;;;;;;;0.63;0.40;;;7.90;99.90;;;;;;5044052;28;20663;-62
2024/03/24 01:32:27;;;;;;;0.43;0.33;;;7.90;99.90;;;;;;5042411;28;20226;-62
2024/03/24 01:34:54;;;;;;;1.87;0.60;;;7.90;99.90;;;;;;5040570;28;20203;-60
2024/03/24 01:37:21;;;;;;;0.80;0.50;;;7.80;99.90;;;;;;5040227;28;20668;-61
2024/03/24 01:39:48;;;;;;;0.87;0.30;;;7.80;99.90;;;;;;5043599;28;20205;-61
2024/03/24 01:42:14;;;;;;;1.97;0.60;;;7.90;99.90;;;;;;5043203;28;20225;-60
2024/03/24 01:44:41;;;;;;;1.30;0.43;;;7.90;99.90;;;;;;5040614;28;20198;-61
2024/03/24 01:47:09;;;;;;;0.70;0.40;;;7.90;99.90;;;;;;5040118;28;20210;-62
2024/03/24 01:49:36;;;;;;;1.90;0.53;;;7.90;99.90;;;;;;5042080;28;20206;-61
2024/03/24 01:52:05;;;;;;;1.33;0.63;;;8.00;99.90;;;;;;5043096;28;20561;-60
2024/03/24 01:54:34;;;;;;;1.07;0.47;;;8.00;99.90;;;;;;5041856;28;20284;-60
2024/03/24 01:57:00;;;;;;;0.87;0.53;;;8.00;99.90;;;;;;5039643;28;20237;-60
2024/03/24 01:59:27;;;;;;;0.57;0.40;;;8.10;99.90;;;;;;5040726;28;20230;-60
2024/03/24 02:01:53;;;;;;;1.93;0.40;;;8.10;99.90;;;;;;5043126;28;20202;-60
2024/03/24 02:04:19;;;;;;;1.23;0.47;;;8.00;99.90;;;;;;5043278;28;20690;-61
2024/03/24 02:06:45;;;;;;;1.17;0.67;;;8.10;99.90;;;;;;5031661;28;20198;-61
2024/03/24 02:09:12;;;;;;;0.87;0.40;;;8.00;99.90;;;;;;5039896;28;20205;-61
2024/03/24 02:11:39;;;;;;;1.10;0.50;;;7.90;99.90;;;;;;5042403;28;20202;-61
2024/03/24 02:14:05;;;;;;;0.90;0.60;;;7.90;99.90;;;;;;5043183;28;20221;-61
2024/03/24 02:16:31;;;;;;;1.47;0.70;;;7.90;99.90;;;;;;5041494;28;20197;-60
2024/03/24 02:18:58;;;;;;;2.07;0.50;;;7.80;99.90;;;;;;5039773;28;20198;-61
2024/03/24 02:21:24;;;;;;;2.43;0.80;;;7.80;99.90;;;;;;5040510;28;20224;-62
2024/03/24 02:23:52;;;;;;;0.60;0.40;;;7.60;99.90;;;;;;5042735;28;20229;-61
2024/03/24 02:26:18;;;;;;;0.80;0.50;;;7.60;99.90;;;;;;5043145;28;20213;-62
2024/03/24 02:28:45;;;;;;;0.77;0.50;;;7.50;99.90;;;;;;5039948;28;20201;-61
2024/03/24 02:31:11;;;;;;;0.77;0.50;;;7.20;99.90;;;;;;5039592;28;20209;-60
2024/03/24 02:33:39;;;;;;;1.23;0.70;;;7.30;99.90;;;;;;5041665;28;20218;-62
2024/03/24 02:36:05;;;;;;;1.90;0.90;;;7.40;99.90;;;;;;5045760;28;20206;-60
2024/03/24 02:38:32;;;;;;;1.10;0.70;;;7.40;99.90;;;;;;5045007;28;20201;-61
2024/03/24 02:40:59;;;;;;;0.97;0.70;;;7.50;99.90;;;;;;5043561;28;20202;-61
2024/03/24 02:43:26;;;;;;;1.33;0.70;;;7.50;99.90;;;;;;5043514;28;20309;-61
2024/03/24 02:45:55;;;;;;;0.90;0.60;;;7.60;99.90;;;;;;5046756;28;20201;-61
2024/03/24 02:48:22;;;;;;;1.17;0.70;;;7.70;99.90;;;;;;5046430;28;20229;-60
2024/03/24 02:50:48;;;;;;;0.60;0.50;;;7.70;99.90;;;;;;5043130;28;20268;-60
2024/03/24 02:53:14;;;;;;;0.40;0.30;;;7.70;99.90;;;;;;5042924;28;20706;-61
2024/03/24 02:55:44;;;;;;;1.00;0.50;;;7.70;99.90;;;;;;5045364;28;20301;-60
2024/03/24 02:58:12;;;;;;;1.93;0.53;;;7.70;99.90;;;;;;5046402;28;20202;-60
2024/03/24 03:00:38;;;;;;;1.77;0.60;;;7.70;99.90;;;;;;5043839;28;20202;-61
2024/03/24 03:03:05;;;;;;;1.70;0.40;;;7.60;99.90;;;;;;5042566;28;20225;-61
2024/03/24 03:05:31;;;;;;;1.83;0.50;;;7.60;99.90;;;;;;5043629;28;20210;-61
2024/03/24 03:07:57;;;;;;;1.70;0.50;;;7.70;99.90;;;;;;5046269;28;20208;-61
2024/03/24 03:10:23;;;;;;;1.83;0.50;;;7.60;99.90;;;;;;5045642;28;20632;-60
2024/03/24 03:12:50;;;;;;;0.80;0.40;;;7.70;99.90;;;;;;5042606;28;20229;-59
2024/03/24 03:15:17;;;;;;;0.60;0.40;;;7.70;99.90;;;;;;5042698;28;20198;-60
2024/03/24 03:17:44;;;;;;;1.07;0.50;;;7.80;99.90;;;;;;5045065;28;20220;-62
2024/03/24 03:20:12;;;;;;;2.17;1.33;;;7.90;99.90;;;;;;5045877;28;20205;-61
2024/03/24 03:22:39;;;;;;;0.57;0.50;;;7.70;99.90;;;;;;5043321;28;20733;-62
2024/03/24 03:25:06;;;;;;;1.63;0.50;;;7.60;99.90;;;;;;5042647;28;20206;-61
2024/03/24 03:27:33;;;;;;;1.63;0.77;;;7.50;99.90;;;;;;5043749;28;20257;-62
2024/03/24 03:29:59;;;;;;;2.33;0.63;;;7.50;99.90;;;;;;5046074;28;20251;-61
2024/03/24 03:32:27;;;;;;;2.10;0.77;;;7.60;99.90;;;;;;5045341;28;20213;-61
2024/03/24 03:34:54;;;;;;;1.90;1.13;;;7.50;99.90;;;;;;5042414;28;20577;-60
2024/03/24 03:37:21;;;;;;;2.47;0.80;;;7.60;99.90;;;;;;5042304;28;20305;-61
2024/03/24 03:39:47;;;;;;;0.87;0.60;;;7.60;99.90;;;;;;5045637;28;20675;-62
2024/03/24 03:42:14;;;;;;;0.70;0.40;;;7.50;99.90;;;;;;5045672;28;20222;-62
2024/03/24 03:44:40;;;;;;;1.13;0.60;;;7.50;99.90;;;;;;5043730;28;20293;-59
2024/03/24 03:47:07;;;;;;;1.73;0.47;;;7.60;99.90;;;;;;5042049;28;20222;-60
2024/03/24 03:49:34;;;;;;;0.47;0.43;;;7.50;99.90;;;;;;5043930;28;20210;-61
2024/03/24 03:52:01;;;;;;;0.70;0.33;;;7.50;99.90;;;;;;5045746;28;20202;-61
2024/03/24 03:54:27;;;;;;;0.77;0.40;;;7.50;99.90;;;;;;5044735;28;20237;-61
2024/03/24 03:56:54;;;;;;;0.60;0.40;;;7.50;99.90;;;;;;5042065;28;20237;-61
2024/03/24 03:59:20;;;;;;;0.93;0.53;;;7.60;99.90;;;;;;5041970;28;20289;-61
2024/03/24 04:01:46;;;;;;;1.10;0.33;;;7.60;99.90;;;;;;5044869;28;20297;-62
2024/03/24 04:04:13;;;;;;;0.47;0.30;;;7.60;99.90;;;;;;5045321;28;20264;-59
2024/03/24 04:06:41;;;;;;;1.00;0.50;;;7.70;99.90;;;;;;5042882;28;20675;-60
2024/03/24 04:09:08;;;;;;;0.53;0.37;;;7.70;99.90;;;;;;5041907;28;20586;-59
2024/03/24 04:11:35;;;;;;;0.70;0.40;;;7.80;99.90;;;;;;5043170;28;20208;-60
2024/03/24 04:14:01;;;;;;;0.70;0.30;;;7.70;99.90;;;;;;5044984;28;20217;-59
2024/03/24 04:16:27;;;;;;;0.47;0.20;;;7.70;99.90;;;;;;5044359;28;20251;-59
2024/03/24 04:18:53;;;;;;;1.10;0.37;;;7.80;99.90;;;;;;5041906;28;20202;-60
2024/03/24 04:21:20;;;;;;;1.07;0.40;;;7.80;99.90;;;;;;5041466;28;20209;-60
2024/03/24 04:23:47;;;;;;;2.27;0.40;;;7.80;99.90;;;;;;5044286;28;20222;-60
2024/03/24 04:26:13;;;;;;;0.60;0.33;;;7.70;99.90;;;;;;5044716;28;20201;-61
2024/03/24 04:28:39;;;;;;;2.20;0.53;;;7.60;99.90;;;;;;5042796;28;20257;-61
2024/03/24 04:31:06;;;;;;;1.23;0.30;;;7.50;99.90;;;;;;5041193;28;20791;-60
2024/03/24 04:33:32;;;;;;;1.13;0.40;;;7.50;99.90;;;;;;5041189;28;20218;-60
2024/03/24 04:35:58;;;;;;;2.30;0.70;;;7.50;99.90;;;;;;5040817;28;20249;-59
2024/03/24 04:38:24;;;;;;;1.00;0.43;;;7.50;99.90;;;;;;5049287;28;20213;-61
2024/03/24 04:40:52;;;;;;;0.93;0.47;;;7.50;99.90;;;;;;5032953;28;20198;-59
2024/03/24 04:43:19;;;;;;;1.97;0.50;;;7.60;99.90;;;;;;5040711;28;20305;-60
2024/03/24 04:45:46;;;;;;;1.17;0.43;;;7.60;99.90;;;;;;5043242;28;20214;-59
2024/03/24 04:48:12;;;;;;;1.70;0.63;;;7.60;99.90;;;;;;5044495;28;20209;-61
2024/03/24 04:50:38;;;;;;;1.20;0.50;;;7.60;99.90;;;;;;5043110;28;20213;-60
2024/03/24 04:53:06;;;;;;;1.00;0.40;;;7.60;99.90;;;;;;5041215;28;20684;-60
2024/03/24 04:55:32;;;;;;;1.10;0.40;;;7.70;99.90;;;;;;5041059;28;20741;-61
2024/03/24 04:58:00;;;;;;;1.70;0.30;;;7.70;99.90;;;;;;5040526;28;20194;-59
2024/03/24 05:00:26;;;;;;;3.13;0.30;;;7.80;99.90;;;;;;5049776;28;20209;-60
2024/03/24 05:02:53;;;;;;;0.50;0.40;;;7.70;99.90;;;;;;5040745;28;20229;-59
2024/03/24 05:05:18;;;;;;;0.80;0.50;;;7.60;99.90;;;;;;5040713;28;20202;-61
2024/03/24 05:07:48;;;;;;;0.73;0.50;;;7.50;99.90;;;;;;5042866;28;20261;-59
2024/03/24 05:10:14;;;;;;;1.47;0.60;;;7.30;99.90;;;;;;5043893;28;20647;-59
2024/03/24 05:12:41;;;;;;;0.63;0.43;;;7.10;99.90;;;;;;5041544;28;20249;-59
2024/03/24 05:15:09;;;;;;;1.67;0.67;;;6.90;99.90;;;;;;5040629;28;20209;-60
2024/03/24 05:17:37;;;;;;;1.97;0.50;;;6.70;99.90;;;;;;5040309;28;20206;-59
2024/03/24 05:20:03;;;;;;;1.60;0.43;;;6.60;99.90;;;;;;5040359;28;20205;-59
2024/03/24 05:22:30;;;;;;;1.20;0.57;;;6.60;99.90;;;;;;5040553;28;20364;-59
2024/03/24 05:24:57;;;;;;;2.03;0.73;;;6.60;99.90;;;;;;5043691;28;20216;-60
2024/03/24 05:27:23;;;;;;;1.80;0.77;;;6.50;99.90;;;;;;5044147;28;20284;-60
2024/03/24 05:29:49;;;;;;;1.20;0.40;;;6.60;99.90;;;;;;5040975;28;20249;-60
2024/03/24 05:32:17;;;;;;;0.83;0.60;;;6.60;99.90;;;;;;5040636;28;20214;-60
2024/03/24 05:34:43;;;;;;;0.73;0.53;;;6.60;99.90;;;;;;5042722;28;20206;-59
2024/03/24 05:37:10;;;;;;;1.43;0.40;;;6.70;99.90;;;;;;5043960;28;20202;-59
2024/03/24 05:39:36;;;;;;;1.30;0.50;;;6.70;99.90;;;;;;5042378;28;20205;-59
2024/03/24 05:42:03;;;;;;;1.23;0.40;;;6.90;99.90;;;;;;5040298;28;20210;-59
2024/03/24 05:44:30;;;;;;;1.10;0.40;;;7.00;99.90;;;;;;5040860;28;20249;-60
2024/03/24 05:46:56;;;;;;;0.83;0.43;;;7.00;99.90;;;;;;5043510;28;20198;-59
2024/03/24 05:49:24;;;;;;;1.30;0.33;;;7.10;99.90;;;;;;5043801;28;20671;-61
2024/03/24 05:51:52;;;;;;;1.43;0.47;;;7.20;99.90;;;;;;5040179;28;20285;-60
2024/03/24 05:54:17;;;;;;;0.73;0.47;;;7.30;99.90;;;;;;5040328;28;20558;-60
2024/03/24 05:56:44;;;;;;;1.23;1.00;;;7.30;99.90;;;;;;5042336;28;20691;-60
2024/03/24 05:59:10;;;;;;;1.13;0.80;;;7.30;99.90;;;;;;5043741;28;20201;-59
2024/03/24 06:01:36;;;;;;;1.33;0.63;;;7.50;99.90;;;;;;5042012;28;20212;-60
2024/03/24 06:04:03;;;;;;;0.40;0.40;;;7.50;99.90;;;;;;5039478;28;20620;-59
2024/03/24 06:06:31;;;;;;;1.30;0.70;;;7.60;99.90;;;;;;5039670;28;20206;-59
2024/03/24 06:08:57;;;;;;;0.47;0.40;;;7.60;99.90;;;;;;5043187;28;20202;-60
2024/03/24 06:11:24;;;;;;;1.50;0.70;;;7.60;99.90;;;;;;5047045;28;20204;-61
2024/03/24 06:13:50;;;;;;;0.73;0.50;;;7.60;99.90;;;;;;5043929;28;20287;-60
2024/03/24 06:16:16;;;;;;;1.00;0.30;;;7.60;99.90;;;;;;5043489;28;20664;-59
2024/03/24 06:18:42;;;;;;;2.13;0.63;;;7.60;99.90;;;;;;5045943;28;20206;-60
2024/03/24 06:21:09;;;;;;;1.00;0.70;;;7.70;99.90;;;;;;5049764;28;20676;-59
2024/03/24 06:23:36;;;;;;;3.07;0.73;;;7.90;99.90;;;;;;5044647;28;20229;-60
2024/03/24 06:26:03;;;;;;;2.63;1.20;;;8.00;99.90;;;;;;5047017;28;20208;-59
2024/03/24 06:28:29;;;;;;;2.10;0.63;;;8.00;99.90;;;;;;5046902;28;20209;-60
2024/03/24 06:30:55;;;;;;;1.70;0.60;;;7.90;99.90;;;;;;5043574;28;20198;-60
2024/03/24 06:33:21;;;;;;;2.67;1.07;;;7.90;99.90;;;;;;5043697;28;20226;-60
2024/03/24 06:35:48;;;;;;;0.83;0.37;;;8.20;99.90;;;;;;5045467;28;20564;-59
2024/03/24 06:38:13;;;;;;;1.73;1.00;;;9.40;99.90;;;;;;5046571;28;20202;-59
2024/03/24 06:40:43;;;;;;;1.03;0.60;;;10.70;99.90;;;;;;5045009;28;20209;-59
2024/03/24 06:43:12;;;;;;;1.60;0.63;;;12.10;99.90;;;;;;5043134;28;20230;-59
2024/03/24 06:45:46;;;;;;;1.93;1.00;;;12.70;99.90;;;;;;5044194;28;20209;-59
2024/03/24 06:48:11;;;;;;;1.73;0.87;;;12.60;99.90;;;;;;5046454;28;20216;-59
2024/03/24 06:50:38;;;;;;;1.20;0.60;;;12.20;99.90;;;;;;5044997;28;20288;-59
2024/03/24 06:53:04;;;;;;;1.33;0.67;;;11.70;99.90;;;;;;5043084;28;20230;-59
2024/03/24 06:55:30;;;;;;;2.33;0.83;;;11.30;99.90;;;;;;5043023;28;20256;-60
2024/03/24 06:57:57;;;;;;;1.27;0.80;;;10.80;99.90;;;;;;5046540;28;20206;-59
2024/03/24 07:00:24;;;;;;;1.40;0.80;;;10.50;99.90;;;;;;5046443;28;20202;-59
2024/03/24 07:02:50;;;;;;;2.10;1.30;;;10.40;99.90;;;;;;5042758;28;20226;-59
2024/03/24 07:05:17;;;;;;;2.50;0.80;;;10.40;99.90;;;;;;5042923;28;20248;-59
2024/03/24 07:07:43;;;;;;;2.10;0.80;;;10.30;99.90;;;;;;5044365;28;20602;-60
2024/03/24 07:10:10;;;;;;;1.80;1.00;;;10.20;99.90;;;;;;5046260;28;20202;-59
2024/03/24 07:12:36;;;;;;;2.93;1.00;;;10.10;99.90;;;;;;5046190;28;20226;-59
2024/03/24 07:15:04;;;;;;;0.97;0.63;;;9.90;99.90;;;;;;5049871;28;20232;-59
2024/03/24 07:17:30;;;;;;;1.40;0.80;;;9.70;99.90;;;;;;5042937;28;20208;-59
2024/03/24 07:19:56;;;;;;;1.67;1.20;;;9.50;99.90;;;;;;5045833;28;20198;-59
2024/03/24 07:22:22;;;;;;;2.23;0.80;;;9.50;99.90;;;;;;5045770;28;20737;-59
2024/03/24 07:24:50;;;;;;;2.33;1.00;;;9.50;99.90;;;;;;5042524;28;20214;-60
2024/03/24 07:27:16;;;;;;;1.60;0.80;;;9.50;99.90;;;;;;5048936;28;20307;-59
2024/03/24 07:29:43;;;;;;;2.13;0.80;;;9.70;99.90;;;;;;5045793;28;20675;-59
2024/03/24 07:32:10;;;;;;;1.57;1.07;;;9.80;99.90;;;;;;5048547;28;20226;-58
2024/03/24 07:34:38;;;;;;;2.67;1.40;;;9.80;99.90;;;;;;5042654;28;20198;-58
2024/03/24 07:37:05;;;;;;;3.80;1.10;;;9.80;99.90;;;;;;5047115;28;20292;-58
2024/03/24 07:39:32;;;;;;;3.10;1.00;;;9.70;99.90;;;;;;5045797;28;20614;-58
2024/03/24 07:41:58;;;;;;;1.00;0.70;;;9.70;99.90;;;;;;5042023;28;20699;-58
2024/03/24 07:44:24;;;;;;;3.23;1.30;;;10.50;99.90;;;;;;5042220;28;20228;-57
2024/03/24 07:46:50;;;;;;;3.27;1.17;;;11.70;99.90;;;;;;5044402;28;20236;-57
2024/03/24 07:49:18;;;;;;;2.53;0.83;;;13.40;99.90;;;;;;5045526;28;20201;-58
2024/03/24 07:51:44;;;;;;;3.23;0.63;;;14.90;99.90;;;;;;5043498;28;20220;-57
2024/03/24 07:54:11;;;;;;;1.73;0.80;;;16.20;99.90;;;;;;5041814;28;20222;-57
2024/03/24 07:56:36;;;;;;;2.67;1.20;;;17.20;99.50;;;;;;5042490;28;20215;-58
2024/03/24 07:59:03;;;;;;;2.05;0.80;;;18.00;97.10;;;;;;5045098;28;20667;-58
2024/03/24 08:01:29;;;;;;;1.67;0.80;;;18.10;96.20;;;;;;5045043;28;20216;-58
2024/03/24 08:03:55;;;;;;;2.20;1.52;;;17.80;96.10;;;;;;5041304;28;20641;-58
2024/03/24 08:06:22;;;;;;;0.82;0.57;;;16.90;96.40;;;;;;5041631;28;20198;-57
2024/03/24 08:08:49;;;;;;;2.03;0.83;;;16.00;96.40;;;;;;5044060;28;20257;-57
2024/03/24 08:11:15;;;;;;;5.53;2.93;;;14.90;97.70;;;;;;5045053;28;20202;-57
2024/03/24 08:13:41;;;;;;;1.53;0.90;;;14.30;98.70;;;;;;5043360;28;20222;-57
2024/03/24 08:16:07;;;;;;;1.70;0.97;;;13.90;98.20;;;;;;5041000;28;20209;-57
2024/03/24 08:18:36;;;;;;;2.63;0.93;;;13.70;99.00;;;;;;5041497;28;20202;-57
2024/03/24 08:21:03;;;;;;;1.73;0.67;;;13.50;99.30;;;;;;5044834;28;20263;-57
2024/03/24 08:23:31;;;;;;;1.90;0.80;;;13.20;99.00;;;;;;5044572;28;20695;-58
2024/03/24 08:25:57;;;;;;;1.00;0.70;;;13.20;99.70;;;;;;5044493;28;20268;-57
2024/03/24 08:28:24;;;;;;;0.70;0.57;;;13.10;99.50;;;;;;5044423;28;20655;-59
2024/03/24 08:30:49;;;;;;;1.10;0.70;;;12.90;99.40;;;;;;5042216;28;20210;-57
2024/03/24 08:33:16;;;;;;;1.53;0.80;;;12.80;99.90;;;;;;5038947;28;20706;-57
2024/03/24 08:35:42;;;;;;;1.87;0.70;;;12.70;99.50;;;;;;5042853;28;20217;-57
2024/03/24 08:38:08;;;;;;;1.80;0.80;;;12.60;99.90;;;;;;5040951;28;20205;-57
2024/03/24 08:40:35;;;;;;;1.23;0.63;;;12.50;99.90;;;;;;5041113;28;20216;-57
2024/03/24 08:43:02;;;;;;;1.33;0.70;;;12.50;99.90;;;;;;5039067;28;20229;-63
2024/03/24 08:45:28;;;;;;;1.90;0.90;;;12.50;99.90;;;;;;5040525;28;20727;-55
2024/03/24 08:47:54;;;;;;;1.43;0.70;;;12.40;99.90;;;;;;5043559;28;20201;-59
2024/03/24 08:50:20;;;;;;;1.23;0.70;;;12.30;99.90;;;;;;5044048;28;20202;-59
2024/03/24 08:52:46;;;;;;;1.40;0.60;;;12.20;99.90;;;;;;5041885;28;20232;-59
2024/03/24 08:55:12;;;;;;;1.83;1.00;;;12.10;99.90;;;;;;5040555;28;20707;-59
2024/03/24 08:57:41;;;;;;;1.80;0.80;;;11.90;98.80;;;;;;5040580;28;20229;-59
2024/03/24 09:00:09;;;;;;;2.40;0.90;;;11.80;98.80;;;;;;5043914;28;20198;-61
2024/03/24 09:02:35;;;;;;;1.87;0.77;;;11.80;98.90;;;;;;5043315;28;20225;-58
2024/03/24 09:05:01;;;;;;;2.57;0.80;;;11.90;98.70;;;;;;5040388;28;20218;-58
2024/03/24 09:07:28;;;;;;;4.20;1.07;;;11.90;98.70;;;;;;5040174;28;20198;-58
2024/03/24 09:09:53;;;;;;;3.10;1.63;;;11.80;99.10;;;;;;5042837;28;20201;-58
2024/03/24 09:12:20;;;;;;;4.40;2.10;;;11.70;99.50;;;;;;5043366;28;20266;-58
2024/03/24 09:14:47;;;;;;;3.13;1.13;;;11.60;99.30;;;;;;5041713;28;20229;-58
2024/03/24 09:17:15;;;;;;;3.63;1.20;;;11.40;98.70;;;;;;5040078;28;20206;-58
2024/03/24 09:19:40;;;;;;;3.47;1.20;;;11.10;99.40;;;;;;5040112;28;20235;-59
2024/03/24 09:22:07;;;;;;;3.23;1.43;;;10.90;99.60;;;;;;5040284;28;20232;-57
2024/03/24 09:24:33;;;;;;;2.53;1.40;;;10.70;99.90;;;;;;5039946;28;20226;-59
2024/03/24 09:27:00;;;;;;;3.73;1.50;;;10.50;99.90;;;;;;5031549;28;20202;-59
2024/03/24 09:29:26;;;;;;;2.13;1.20;;;10.40;99.90;;;;;;5040165;28;20205;-59
2024/03/24 09:31:54;;;;;;;4.77;1.63;;;10.40;99.90;;;;;;5040473;28;20589;-59
2024/03/24 09:34:19;;;;;;;3.87;1.67;;;10.30;99.90;;;;;;5024943;28;20207;-57
2024/03/24 09:36:46;;;;;;;3.40;1.33;;;10.40;99.90;;;;;;5031293;28;20643;-57
2024/03/24 09:39:13;;;;;;;2.77;1.40;;;10.40;99.90;;;;;;5031445;28;20210;-56
2024/03/24 09:41:43;;;;;;;5.57;1.67;;;10.30;99.90;;;;;;5031418;28;20264;-57
2024/03/24 09:44:10;;;;;;;3.23;1.50;;;10.40;99.90;;;;;;5030959;28;20259;-58
2024/03/24 09:46:39;;;;;;;4.20;1.60;;;10.30;99.90;;;;;;5030824;28;20210;-57
2024/03/24 09:49:12;;;;;;;4.23;1.57;;;10.40;99.90;;;;;;5031392;28;20214;-58
2024/03/24 09:51:39;;;;;;;4.13;1.47;;;10.20;99.90;;;;;;5031015;28;20248;-58
2024/03/24 09:54:09;;;;;;;5.97;1.73;;;10.00;99.90;;;;;;5031539;28;20253;-58
2024/03/24 09:56:36;;;;;;;4.30;1.53;;;9.80;99.90;;;;;;5031302;28;20311;-58
2024/03/24 09:59:04;;;;;;;2.47;1.30;;;9.80;99.90;;;;;;5031130;28;20206;-59
2024/03/24 10:01:30;;;;;;;4.00;2.30;;;9.90;99.90;;;;;;5022641;28;20289;-58
2024/03/24 10:03:57;;;;;;;4.97;1.67;;;9.80;99.90;;;;;;5053810;22;20230;-56
2024/03/24 10:06:25;;;;;;;3.73;1.70;;;9.80;99.90;;;;;;5030859;28;20214;-59
2024/03/24 10:08:51;;;;;;;3.60;1.60;;;9.80;99.90;;;;;;5031100;28;20689;-56
2024/03/24 10:11:24;;;;;;;2.63;1.40;;;9.80;99.90;;;;;;5031123;28;20210;-56
2024/03/24 10:13:51;;;;;;;3.10;1.33;;;9.80;99.90;;;;;;5031068;28;20222;-56
2024/03/24 10:16:17;;;;;;;1.90;1.40;;;9.70;99.90;;;;;;5031214;28;20217;-54
2024/03/24 10:18:44;;;;;;;3.53;2.47;;;9.70;99.90;;;;;;5031071;28;20302;-54
2024/03/24 10:21:10;;;;;;;6.37;2.10;;;9.80;99.90;;;;;;5031346;28;20218;-60
2024/03/24 10:23:38;;;;;;;2.50;1.50;;;9.90;99.90;;;;;;5030840;28;20249;-60
2024/03/24 10:26:04;;;;;;;4.17;1.57;;;10.00;99.90;;;;;;5031088;28;20211;-57
2024/03/24 10:28:31;;;;;;;6.70;3.20;;;10.20;99.90;;;;;;5031469;28;20670;-58
2024/03/24 10:31:04;;;;;;;3.87;2.10;;;10.40;99.90;;;;;;5031707;28;20209;-57
2024/03/24 10:33:33;;;;;;;2.53;1.40;;;10.40;99.90;;;;;;5030770;28;20304;-58
2024/03/24 10:35:59;;;;;;;2.50;1.30;;;10.40;99.90;;;;;;5031024;28;20328;-58
2024/03/24 10:38:25;;;;;;;3.07;1.47;;;10.40;99.90;;;;;;5031191;28;20272;-59
2024/03/24 10:40:56;;;;;;;2.63;1.40;;;10.50;99.90;;;;;;5031068;28;20222;-58
2024/03/24 10:43:23;;;;;;;3.07;1.37;;;10.50;99.90;;;;;;5030832;28;20699;-60
2024/03/24 10:45:50;;;;;;;4.93;1.63;;;10.40;99.90;;;;;;5030349;28;20313;-57
2024/03/24 10:48:22;;;;;;;3.63;1.73;;;10.40;99.90;;;;;;5031132;28;20238;-61
2024/03/24 10:50:53;;;;;;;3.10;1.67;;;10.30;99.90;;;;;;5031175;28;20246;-61
2024/03/24 10:53:22;;;;;;;2.83;1.30;;;10.20;99.90;;;;;;5031233;28;20292;-60
2024/03/24 10:55:50;;;;;;;2.47;1.50;;;10.20;99.90;;;;;;5028852;28;20206;-59
2024/03/24 10:58:20;;;;;;;3.07;1.40;;;10.20;99.90;;;;;;5034193;28;20253;-60
2024/03/24 11:00:46;;;;;;;3.90;1.40;;;10.30;99.90;;;;;;5034694;28;20210;-59
2024/03/24 11:03:14;;;;;;;3.33;1.50;;;10.30;99.90;;;;;;5034560;28;20230;-57
2024/03/24 11:05:43;;;;;;;2.80;1.63;;;10.30;99.90;;;;;;5034313;28;20576;-58
2024/03/24 11:08:11;;;;;;;3.60;1.50;;;10.20;99.90;;;;;;5034519;28;20205;-59
2024/03/24 11:10:36;;;;;;;6.70;2.13;;;10.30;99.90;;;;;;5033978;28;20210;-61
2024/03/24 11:13:04;;;;;;;4.13;1.60;;;10.40;99.90;;;;;;5033945;28;20680;-58
2024/03/24 11:15:33;;;;;;;2.83;1.60;;;10.50;99.90;;;;;;5034142;28;20656;-58
2024/03/24 11:18:00;;;;;;;4.40;1.43;;;10.50;99.90;;;;;;5034313;28;20214;-56
2024/03/24 11:20:26;;;;;;;3.10;1.40;;;10.60;99.90;;;;;;5034216;28;20664;-55
2024/03/24 11:22:53;;;;;;;3.83;1.60;;;10.70;99.90;;;;;;5034097;28;20233;-56
2024/03/24 11:25:19;;;;;;;3.10;1.23;;;10.60;99.90;;;;;;5034018;28;20696;-58
2024/03/24 11:27:46;;;;;;;10.83;7.90;;;10.60;99.90;;;;;;5033513;28;20241;-56
2024/03/24 11:30:12;;;;;;;3.83;1.57;;;10.50;99.90;;;;;;5034127;28;20209;-57
2024/03/24 11:32:54;;;;;;;3.50;1.40;;;10.50;99.90;;;;;;5033892;28;20226;-57
2024/03/24 11:35:25;;;;;;;2.80;1.30;;;10.50;99.90;;;;;;5033645;28;20675;-57
2024/03/24 11:37:52;;;;;;;3.63;1.80;;;10.40;99.90;;;;;;5033697;28;20210;-57
2024/03/24 11:40:23;;;;;;;3.67;1.40;;;10.30;99.90;;;;;;5034014;28;20574;-54
2024/03/24 11:42:53;;;;;;;3.77;1.70;;;10.20;99.90;;;;;;5033564;28;20280;-55
2024/03/24 11:45:28;;;;;;;1.57;1.10;;;10.10;99.90;;;;;;5033827;28;20221;-55
2024/03/24 11:48:26;;;;;;;2.47;1.50;;;10.10;99.90;;;;;;5033121;28;20251;-57
2024/03/24 11:50:54;;;;;;;3.50;2.57;;;10.00;99.90;;;;;;5033669;28;20206;-55
2024/03/24 11:53:22;;;;;;;2.47;1.60;;;10.00;99.90;;;;;;5033503;28;20344;-55
2024/03/24 11:55:49;;;;;;;4.70;1.73;;;10.10;99.90;;;;;;5033448;28;20207;-54
2024/03/24 11:58:15;;;;;;;3.07;1.80;;;10.20;99.90;;;;;;5033366;28;20293;-55
2024/03/24 12:00:41;;;;;;;2.70;1.03;;;10.30;99.90;;;;;;5032865;28;20210;-56
2024/03/24 12:03:08;;;;;;;4.30;1.73;;;10.40;99.90;;;;;;5033076;28;20234;-54
2024/03/24 12:05:35;;;;;;;3.00;1.40;;;10.40;99.90;;;;;;5033059;28;20599;-55
2024/03/24 12:08:02;;;;;;;2.33;1.23;;;10.50;99.90;;;;;;5032555;28;20649;-55
2024/03/24 12:10:28;;;;;;;4.07;2.07;;;10.70;99.90;;;;;;5033228;28;20207;-56
2024/03/24 12:12:55;;;;;;;3.97;1.63;;;10.70;99.90;;;;;;5032437;28;20333;-55
2024/03/24 12:15:20;;;;;;;1.67;1.23;;;10.50;99.90;;;;;;5032963;28;20213;-55
2024/03/24 12:17:47;;;;;;;3.70;1.83;;;10.40;99.90;;;;;;5032499;28;20206;-55
2024/03/24 12:20:14;;;;;;;2.10;1.43;;;10.30;99.90;;;;;;5033193;28;20214;-55
2024/03/24 12:22:42;;;;;;;3.73;1.70;;;10.40;99.90;;;;;;5032655;28;20226;-56
2024/03/24 12:25:09;;;;;;;2.63;1.50;;;10.60;99.90;;;;;;5032901;28;20249;-55
2024/03/24 12:27:37;;;;;;;2.27;1.20;;;10.80;99.90;;;;;;5032856;28;20211;-55
2024/03/24 12:30:03;;;;;;;3.23;1.47;;;11.10;99.90;;;;;;5033077;28;20210;-55
2024/03/24 12:32:30;;;;;;;2.27;1.40;;;11.20;99.90;;;;;;5032712;28;20738;-56
2024/03/24 12:34:57;;;;;;;2.00;1.33;;;11.20;99.90;;;;;;5032759;28;20206;-55
2024/03/24 12:37:24;;;;;;;4.80;2.07;;;11.00;99.90;;;;;;5032398;28;20235;-56
2024/03/24 12:39:51;;;;;;;7.53;2.90;;;10.90;99.90;;;;;;5024580;28;20213;-56
2024/03/24 12:42:18;;;;;;;2.97;1.60;;;10.70;99.90;;;;;;5033016;28;20289;-56
2024/03/24 12:44:44;;;;;;;4.43;1.57;;;10.50;99.90;;;;;;5032069;28;20695;-55
2024/03/24 12:47:11;;;;;;;3.13;1.23;;;10.40;99.90;;;;;;5032652;28;20202;-55
2024/03/24 12:49:37;;;;;;;3.83;1.70;;;10.40;99.90;;;;;;5032426;28;20214;-55
2024/03/24 12:52:06;;;;;;;3.17;1.33;;;10.20;99.90;;;;;;5032320;28;20211;-55